createdAt,value
2023-04-02T00:01:13.738Z,98481.94
2023-04-02T00:03:42.245Z,98477.81
2023-04-02T00:06:32.802Z,98482.03
2023-04-02T00:09:15.575Z,98484.63
2023-04-02T00:11:44.476Z,98492.88
2023-04-02T00:14:37.202Z,98486.03
2023-04-02T00:17:05.381Z,98487.06
2023-04-02T00:19:43.225Z,98492.16
2023-04-02T00:22:15.558Z,98494.88
2023-04-02T00:24:42.101Z,98496.41
2023-04-02T00:27:13.492Z,98496.97
2023-04-02T00:29:54.497Z,98500.44
2023-04-02T00:32:41.181Z,98503.88
2023-04-02T00:35:17.536Z,98503.00
2023-04-02T00:37:44.453Z,98510.13
2023-04-02T00:40:19.951Z,98513.38
2023-04-02T00:42:48.340Z,98506.44
2023-04-02T00:45:28.558Z,98502.78
2023-04-02T00:47:55.535Z,98519.91
2023-04-02T00:50:28.993Z,98504.53
2023-04-02T00:52:57.497Z,98509.13
2023-04-02T00:55:36.883Z,98513.22
2023-04-02T00:58:06.910Z,98515.91
2023-04-02T01:00:35.442Z,98521.03
2023-04-02T01:03:17.450Z,98519.25
2023-04-02T01:05:45.890Z,98516.09
2023-04-02T01:08:41.043Z,98518.78
2023-04-02T01:11:20.633Z,98513.25
2023-04-02T01:14:06.826Z,98521.69
2023-04-02T01:16:39.288Z,98519.13
2023-04-02T01:19:18.243Z,98519.38
2023-04-02T01:21:56.122Z,98517.34
2023-04-02T01:24:24.859Z,98525.63
2023-04-02T01:26:55.684Z,98527.63
2023-04-02T01:29:26.521Z,98530.06
2023-04-02T01:31:54.883Z,98531.13
2023-04-02T01:34:26.437Z,98534.06
2023-04-02T01:36:59.121Z,98539.38
2023-04-02T01:39:54.538Z,98535.25
2023-04-02T01:42:27.021Z,98538.41
2023-04-02T01:44:55.197Z,98538.28
2023-04-02T01:47:27.268Z,98537.25
2023-04-02T01:49:58.267Z,98535.97
2023-04-02T01:52:40.573Z,98543.66
2023-04-02T01:55:08.805Z,98543.06
2023-04-02T01:57:35.307Z,98543.94
2023-04-02T02:00:02.284Z,98542.94
2023-04-02T02:02:28.843Z,98541.38
2023-04-02T02:04:55.602Z,98536.50
2023-04-02T02:07:22.140Z,98542.25
2023-04-02T02:09:49.027Z,98539.50
2023-04-02T02:12:16.119Z,98545.28
2023-04-02T02:14:47.903Z,98540.06
2023-04-02T02:17:17.942Z,98547.22
2023-04-02T02:19:47.922Z,98549.66
2023-04-02T02:22:26.354Z,98549.75
2023-04-02T02:24:53.885Z,98554.78
2023-04-02T02:27:21.313Z,98559.19
2023-04-02T02:29:51.953Z,98558.97
2023-04-02T02:32:20.920Z,98558.97
2023-04-02T02:34:52.516Z,98565.09
2023-04-02T02:37:23.377Z,98568.72
2023-04-02T02:39:53.828Z,98570.41
2023-04-02T02:42:24.885Z,98564.78
2023-04-02T02:44:52.307Z,98573.44
2023-04-02T02:47:31.415Z,98579.38
2023-04-02T02:50:01.708Z,98577.66
2023-04-02T02:52:30.948Z,98577.44
2023-04-02T02:55:01.570Z,98577.56
2023-04-02T02:57:32.284Z,98583.44
2023-04-02T02:59:59.626Z,98583.03
2023-04-02T03:02:27.821Z,98581.75
2023-04-02T03:04:55.235Z,98583.50
2023-04-02T03:07:28.420Z,98593.25
2023-04-02T03:10:15.054Z,98588.34
2023-04-02T03:13:08.770Z,98594.16
2023-04-02T03:15:42.206Z,98594.34
2023-04-02T03:18:28.826Z,98590.03
2023-04-02T03:21:08.223Z,98588.03
2023-04-02T03:23:46.247Z,98603.38
2023-04-02T03:26:19.376Z,98600.03
2023-04-02T03:28:51.630Z,98610.00
2023-04-02T03:31:31.052Z,98602.97
2023-04-02T03:34:00.140Z,98610.94
2023-04-02T03:36:43.603Z,98611.59
2023-04-02T03:39:33.832Z,98615.13
2023-04-02T03:42:07.393Z,98618.47
2023-04-02T03:44:44.412Z,98623.59
2023-04-02T03:47:31.758Z,98618.59
2023-04-02T03:50:19.297Z,98629.63
2023-04-02T03:52:46.004Z,98628.31
2023-04-02T03:55:17.355Z,98629.59
2023-04-02T03:57:58.395Z,98640.72
2023-04-02T04:00:33.479Z,98639.06
2023-04-02T04:03:08.185Z,98643.13
2023-04-02T04:05:36.782Z,98635.59
2023-04-02T04:08:16.917Z,98644.06
2023-04-02T04:10:43.746Z,98640.56
2023-04-02T04:13:16.217Z,98650.50
2023-04-02T04:15:51.569Z,98650.25
2023-04-02T04:18:42.028Z,98653.91
2023-04-02T04:21:37.359Z,98652.13
2023-04-02T04:24:22.392Z,98665.47
2023-04-02T04:27:03.981Z,98663.00
2023-04-02T04:29:38.162Z,98665.31
2023-04-02T04:32:27.226Z,98672.34
2023-04-02T04:35:02.900Z,98674.69
2023-04-02T04:37:36.265Z,98672.75
2023-04-02T04:40:16.438Z,98675.66
2023-04-02T04:42:45.526Z,98682.72
2023-04-02T04:45:46.916Z,98681.38
2023-04-02T04:48:19.785Z,98687.88
2023-04-02T04:50:53.609Z,98684.47
2023-04-02T04:53:23.026Z,98691.97
2023-04-02T04:55:52.083Z,98698.50
2023-04-02T04:58:21.334Z,98701.38
2023-04-02T05:00:50.814Z,98707.28
2023-04-02T05:03:20.651Z,98710.19
2023-04-02T05:05:47.162Z,98713.69
2023-04-02T05:08:25.794Z,98716.91
2023-04-02T05:10:52.135Z,98714.22
2023-04-02T05:13:42.583Z,98725.19
2023-04-02T05:16:33.546Z,98723.91
2023-04-02T05:19:07.298Z,98727.38
2023-04-02T05:21:44.665Z,98727.53
2023-04-02T05:24:48.948Z,98736.50
2023-04-02T05:27:46.476Z,98736.31
2023-04-02T05:30:28.347Z,98733.75
2023-04-02T05:33:07.789Z,98749.47
2023-04-02T05:35:36.950Z,98748.81
2023-04-02T05:38:04.700Z,98734.16
2023-04-02T05:40:41.814Z,98748.56
2023-04-02T05:43:10.983Z,98749.91
2023-04-02T05:45:39.317Z,98748.47
2023-04-02T05:48:17.192Z,98761.00
2023-04-02T05:50:49.802Z,98761.19
2023-04-02T05:53:20.940Z,98763.59
2023-04-02T05:56:08.480Z,98761.34
2023-04-02T05:58:52.490Z,98769.34
2023-04-02T06:01:29.279Z,98771.06
2023-04-02T06:04:01.290Z,98778.16
2023-04-02T06:06:39.860Z,98778.66
2023-04-02T06:09:11.678Z,98785.72
2023-04-02T06:11:45.412Z,98780.56
2023-04-02T06:14:13.179Z,98791.72
2023-04-02T06:16:39.860Z,98789.88
2023-04-02T06:19:16.005Z,98797.25
2023-04-02T06:21:47.247Z,98805.81
2023-04-02T06:24:16.938Z,98809.75
2023-04-02T06:26:48.091Z,98806.69
2023-04-02T06:29:28.535Z,98812.88
2023-04-02T06:32:00.722Z,98813.56
2023-04-02T06:34:29.283Z,98815.53
2023-04-02T06:36:58.553Z,98822.72
2023-04-02T06:39:26.982Z,98825.50
2023-04-02T06:42:12.090Z,98830.34
2023-04-02T06:44:38.535Z,98835.13
2023-04-02T06:47:23.141Z,98837.84
2023-04-02T06:49:53.642Z,98838.56
2023-04-02T06:52:24.607Z,98839.34
2023-04-02T06:54:51.555Z,98852.91
2023-04-02T06:57:18.050Z,98851.59
2023-04-02T06:59:44.553Z,98852.59
2023-04-02T07:02:31.389Z,98859.19
2023-04-02T07:05:02.794Z,98865.97
2023-04-02T07:07:29.384Z,98874.41
2023-04-02T07:09:56.306Z,98873.88
2023-04-02T07:12:24.750Z,98879.78
2023-04-02T07:14:51.451Z,98887.09
2023-04-02T07:17:18.708Z,98895.53
2023-04-02T07:19:49.150Z,98886.44
2023-04-02T07:22:17.336Z,98904.19
2023-04-02T07:24:44.348Z,98907.97
2023-04-02T07:27:12.035Z,98913.44
2023-04-02T07:29:42.669Z,98920.16
2023-04-02T07:32:10.773Z,98930.31
2023-04-02T07:34:38.178Z,98928.03
2023-04-02T07:37:04.998Z,98928.91
2023-04-02T07:39:31.707Z,98936.38
2023-04-02T07:41:59.793Z,98938.56
2023-04-02T07:44:26.495Z,98941.53
2023-04-02T07:46:53.165Z,98940.72
2023-04-02T07:49:19.897Z,98940.19
2023-04-02T07:51:46.469Z,98952.53
2023-04-02T07:54:13.007Z,98949.44
2023-04-02T07:56:40.031Z,98948.69
2023-04-02T07:59:06.774Z,98946.69
2023-04-02T08:01:35.388Z,98957.88
2023-04-02T08:04:03.841Z,98960.78
2023-04-02T08:06:30.868Z,98958.31
2023-04-02T08:08:58.177Z,98964.38
2023-04-02T08:11:24.676Z,98972.19
2023-04-02T08:13:51.965Z,98976.66
2023-04-02T08:16:18.610Z,98977.47
2023-04-02T08:18:47.478Z,98984.50
2023-04-02T08:21:16.350Z,98991.56
2023-04-02T08:23:43.440Z,98997.22
2023-04-02T08:26:09.890Z,99002.09
2023-04-02T08:28:36.355Z,99001.59
2023-04-02T08:31:04.686Z,99005.00
2023-04-02T08:33:31.435Z,99009.88
2023-04-02T08:35:57.965Z,99006.00
2023-04-02T08:38:25.294Z,99020.31
2023-04-02T08:40:54.500Z,99017.66
2023-04-02T08:43:40.669Z,99024.63
2023-04-02T08:46:40.967Z,99034.16
2023-04-02T08:49:17.129Z,99042.19
2023-04-02T08:51:44.155Z,99039.88
2023-04-02T08:54:22.578Z,99048.72
2023-04-02T08:57:16.160Z,99048.22
2023-04-02T08:59:44.423Z,99045.22
2023-04-02T09:02:32.620Z,99049.59
2023-04-02T09:05:03.690Z,99052.44
2023-04-02T09:07:32.949Z,99063.03
2023-04-02T09:10:00.390Z,99062.28
2023-04-02T09:12:29.889Z,99065.81
2023-04-02T09:15:34.166Z,99067.44
2023-04-02T09:18:13.343Z,99079.94
2023-04-02T09:20:40.593Z,99076.84
2023-04-02T09:23:18.716Z,99088.88
2023-04-02T09:25:54.274Z,99089.25
2023-04-02T09:28:24.326Z,99089.91
2023-04-02T09:30:59.364Z,99087.78
2023-04-02T09:33:46.318Z,99106.81
2023-04-02T09:36:35.923Z,99102.78
2023-04-02T09:39:23.664Z,99111.22
2023-04-02T09:42:02.898Z,99116.34
2023-04-02T09:44:32.745Z,99117.03
2023-04-02T09:47:04.166Z,99125.41
2023-04-02T09:49:38.615Z,99124.00
2023-04-02T09:52:19.978Z,99131.63
2023-04-02T09:54:47.899Z,99133.91
2023-04-02T09:57:23.568Z,99138.44
2023-04-02T10:00:12.240Z,99138.63
2023-04-02T10:02:46.610Z,99143.56
2023-04-02T10:05:30.135Z,99151.50
2023-04-02T10:08:17.857Z,99158.28
2023-04-02T10:10:47.637Z,99155.06
2023-04-02T10:13:22.982Z,99156.63
2023-04-02T10:15:55.683Z,99160.56
2023-04-02T10:18:40.433Z,99162.97
2023-04-02T10:21:08.473Z,99168.09
2023-04-02T10:23:34.891Z,99173.34
2023-04-02T10:26:23.090Z,99181.09
2023-04-02T10:28:49.401Z,99182.59
2023-04-02T10:31:31.675Z,99189.09
2023-04-02T10:34:06.042Z,99196.19
2023-04-02T10:36:54.793Z,99194.00
2023-04-02T10:39:25.814Z,99196.59
2023-04-02T10:42:05.281Z,99193.56
2023-04-02T10:44:37.668Z,99201.41
2023-04-02T10:47:14.316Z,99206.91
2023-04-02T10:49:55.817Z,99208.34
2023-04-02T10:52:35.488Z,99211.25
2023-04-02T10:55:08.791Z,99217.41
2023-04-02T10:57:40.692Z,99222.69
2023-04-02T11:00:16.674Z,99230.31
2023-04-02T11:03:01.828Z,99231.91
2023-04-02T11:05:40.229Z,99240.13
2023-04-02T11:08:16.793Z,99238.88
2023-04-02T11:10:47.151Z,99246.03
2023-04-02T11:13:24.576Z,99247.38
2023-04-02T11:15:51.584Z,99248.31
2023-04-02T11:18:34.030Z,99255.34
2023-04-02T11:21:05.529Z,99259.16
2023-04-02T11:23:34.450Z,99266.94
2023-04-02T11:26:41.348Z,99263.28
2023-04-02T11:29:20.180Z,99267.28
2023-04-02T11:31:47.231Z,99264.97
2023-04-02T11:34:16.121Z,99264.63
2023-04-02T11:36:52.725Z,99274.69
2023-04-02T11:39:56.717Z,99277.13
2023-04-02T11:42:31.209Z,99282.50
2023-04-02T11:45:26.436Z,99280.94
2023-04-02T11:48:02.111Z,99280.09
2023-04-02T11:50:36.578Z,99285.69
2023-04-02T11:53:12.060Z,99286.69
2023-04-02T11:55:40.867Z,99287.41
2023-04-02T11:58:44.954Z,99293.34
2023-04-02T12:01:40.131Z,99293.47
2023-04-02T12:04:30.623Z,99287.31
2023-04-02T12:07:35.033Z,99291.75
2023-04-02T12:10:06.783Z,99293.41
2023-04-02T12:12:40.513Z,99293.91
2023-04-02T12:15:08.686Z,99304.66
2023-04-02T12:17:39.133Z,99307.47
2023-04-02T12:20:13.612Z,99313.69
2023-04-02T12:22:47.028Z,99310.06
2023-04-02T12:25:27.418Z,99321.16
2023-04-02T12:28:05.315Z,99330.34
2023-04-02T12:30:31.898Z,99331.44
2023-04-02T12:33:37.091Z,99346.25
2023-04-02T12:36:11.653Z,99351.44
2023-04-02T12:38:48.606Z,99365.97
2023-04-02T12:41:36.559Z,99378.75
2023-04-02T12:44:15.452Z,99374.06
2023-04-02T12:46:42.613Z,99380.22
2023-04-02T12:49:36.852Z,99395.03
2023-04-02T12:52:06.279Z,99398.06
2023-04-02T12:54:36.754Z,99397.97
2023-04-02T12:57:27.717Z,99391.53
2023-04-02T12:59:55.736Z,99397.25
2023-04-02T13:02:23.774Z,99401.63
2023-04-02T13:04:56.228Z,99397.69
2023-04-02T13:07:28.100Z,99403.69
2023-04-02T13:09:56.801Z,99405.28
2023-04-02T13:12:33.455Z,99415.13
2023-04-02T13:15:02.392Z,99413.16
2023-04-02T13:17:37.965Z,99413.28
2023-04-02T13:20:32.461Z,99430.03
2023-04-02T13:23:01.285Z,99421.47
2023-04-02T13:25:32.474Z,99427.63
2023-04-02T13:27:58.948Z,99429.97
2023-04-02T13:30:27.123Z,99426.16
2023-04-02T13:32:53.682Z,99434.88
2023-04-02T13:35:21.405Z,99432.69
2023-04-02T13:37:48.858Z,99431.81
2023-04-02T13:40:16.767Z,99443.00
2023-04-02T13:42:43.705Z,99447.28
2023-04-02T13:45:26.465Z,99453.50
2023-04-02T13:47:53.343Z,99452.84
2023-04-02T13:50:22.305Z,99458.31
2023-04-02T13:52:51.828Z,99460.56
2023-04-02T13:55:20.852Z,99459.78
2023-04-02T13:57:47.308Z,99466.66
2023-04-02T14:00:14.285Z,99466.19
2023-04-02T14:02:43.670Z,99469.88
2023-04-02T14:05:28.936Z,99479.50
2023-04-02T14:08:17.221Z,99478.84
2023-04-02T14:11:19.758Z,99488.88
2023-04-02T14:13:52.086Z,99494.53
2023-04-02T14:16:37.453Z,99491.28
2023-04-02T14:19:03.846Z,99500.31
2023-04-02T14:21:43.181Z,99506.66
2023-04-02T14:24:15.978Z,99511.94
2023-04-02T14:26:52.247Z,99516.97
2023-04-02T14:29:30.241Z,99525.28
2023-04-02T14:32:03.243Z,99530.25
2023-04-02T14:34:43.303Z,99545.06
2023-04-02T14:37:18.258Z,99538.88
2023-04-02T14:40:01.340Z,99543.84
2023-04-02T14:42:33.840Z,99548.47
2023-04-02T14:45:05.721Z,99552.72
2023-04-02T14:47:41.409Z,99555.38
2023-04-02T14:50:18.849Z,99550.00
2023-04-02T14:52:48.590Z,99551.75
2023-04-02T14:55:26.729Z,99554.66
2023-04-02T14:57:54.954Z,99564.53
2023-04-02T15:00:35.939Z,99572.34
2023-04-02T15:03:22.118Z,99577.72
2023-04-02T15:06:12.850Z,99578.19
2023-04-02T15:08:52.416Z,99578.56
2023-04-02T15:11:34.287Z,99585.28
2023-04-02T15:14:06.801Z,99582.09
2023-04-02T15:16:36.225Z,99587.59
2023-04-02T15:19:04.701Z,99599.63
2023-04-02T15:21:59.926Z,99591.66
2023-04-02T15:24:37.484Z,99596.16
2023-04-02T15:27:25.952Z,99603.28
2023-04-02T15:29:55.165Z,99612.28
2023-04-02T15:32:33.796Z,99607.69
2023-04-02T15:35:06.537Z,99610.09
2023-04-02T15:37:40.099Z,99620.41
2023-04-02T15:40:43.637Z,99624.09
2023-04-02T15:43:29.179Z,99637.16
2023-04-02T15:46:23.459Z,99631.72
2023-04-02T15:49:37.532Z,99621.72
2023-04-02T15:52:16.013Z,99631.19
2023-04-02T15:54:47.832Z,99634.28
2023-04-02T15:57:42.132Z,99651.06
2023-04-02T16:00:14.630Z,99656.97
2023-04-02T16:02:50.973Z,99653.44
2023-04-02T16:05:36.463Z,99659.94
2023-04-02T16:08:24.881Z,99671.38
2023-04-02T16:10:51.419Z,99669.25
2023-04-02T16:13:19.108Z,99673.44
2023-04-02T16:15:56.418Z,99677.00
2023-04-02T16:18:30.899Z,99678.00
2023-04-02T16:21:00.822Z,99689.78
2023-04-02T16:23:36.229Z,99692.94
2023-04-02T16:26:10.527Z,99703.38
2023-04-02T16:28:43.216Z,99707.50
2023-04-02T16:31:32.861Z,99705.47
2023-04-02T16:33:59.577Z,99716.06
2023-04-02T16:36:31.305Z,99713.81
2023-04-02T16:39:25.988Z,99720.13
2023-04-02T16:42:07.477Z,99720.53
2023-04-02T16:44:58.401Z,99720.09
2023-04-02T16:47:46.788Z,99726.72
2023-04-02T16:50:48.723Z,99734.06
2023-04-02T16:53:17.832Z,99746.34
2023-04-02T16:55:50.957Z,99743.91
2023-04-02T16:58:44.890Z,99758.88
2023-04-02T17:01:30.583Z,99750.78
2023-04-02T17:04:24.345Z,99756.56
2023-04-02T17:07:09.589Z,99765.13
2023-04-02T17:09:52.102Z,99770.44
2023-04-02T17:12:53.146Z,99773.97
2023-04-02T17:15:38.846Z,99778.56
2023-04-02T17:18:16.405Z,99781.03
2023-04-02T17:20:45.660Z,99784.56
2023-04-02T17:23:13.871Z,99804.59
2023-04-02T17:26:06.222Z,99801.81
2023-04-02T17:28:39.305Z,99800.34
2023-04-02T17:31:13.673Z,99805.88
2023-04-02T17:33:40.318Z,99811.16
2023-04-02T17:36:24.992Z,99823.81
2023-04-02T17:39:05.574Z,99821.91
2023-04-02T17:41:47.703Z,99821.84
2023-04-02T17:44:23.293Z,99831.78
2023-04-02T17:47:02.002Z,99839.09
2023-04-02T17:49:34.495Z,99840.31
2023-04-02T17:52:19.608Z,99840.44
2023-04-02T17:55:15.470Z,99839.25
2023-04-02T17:57:47.456Z,99853.94
2023-04-02T18:00:25.948Z,99856.66
2023-04-02T18:03:17.107Z,99854.44
2023-04-02T18:05:56.159Z,99871.94
2023-04-02T18:08:30.994Z,99874.63
2023-04-02T18:11:14.468Z,99878.91
2023-04-02T18:13:59.482Z,99883.19
2023-04-02T18:16:28.495Z,99887.81
2023-04-02T18:19:13.422Z,99901.69
2023-04-02T18:21:58.573Z,99903.28
2023-04-02T18:25:04.782Z,99903.16
2023-04-02T18:27:55.644Z,99910.25
2023-04-02T18:30:27.613Z,99912.25
2023-04-02T18:33:03.210Z,99926.16
2023-04-02T18:35:39.876Z,99928.34
2023-04-02T18:38:32.532Z,99916.72
2023-04-02T18:41:36.501Z,99928.72
2023-04-02T18:44:36.975Z,99934.16
2023-04-02T18:47:34.702Z,99941.75
2023-04-02T18:50:19.318Z,99951.84
2023-04-02T18:52:46.058Z,99960.03
2023-04-02T18:55:19.553Z,99968.50
2023-04-02T18:57:49.619Z,99974.94
2023-04-02T19:00:29.686Z,99979.84
2023-04-02T19:03:00.978Z,99975.97
2023-04-02T19:05:51.402Z,99980.81
2023-04-02T19:08:23.081Z,99984.28
2023-04-02T19:11:09.338Z,100000.47
2023-04-02T19:13:36.170Z,99993.03
2023-04-02T19:16:28.371Z,100003.59
2023-04-02T19:19:01.198Z,100000.69
2023-04-02T19:21:48.267Z,100006.34
2023-04-02T19:24:42.623Z,100013.91
2023-04-02T19:27:35.760Z,100014.69
2023-04-02T19:30:02.141Z,100024.34
2023-04-02T19:32:47.242Z,100031.56
2023-04-02T19:35:27.790Z,100031.69
2023-04-02T19:37:54.128Z,100052.19
2023-04-02T19:40:43.552Z,100048.66
2023-04-02T19:43:10.636Z,100061.91
2023-04-02T19:45:41.899Z,100064.69
2023-04-02T19:48:15.791Z,100065.00
2023-04-02T19:50:48.818Z,100071.81
2023-04-02T19:53:15.835Z,100081.22
2023-04-02T19:55:43.104Z,100065.97
2023-04-02T19:58:20.017Z,100075.44
2023-04-02T20:00:46.656Z,100077.91
2023-04-02T20:03:13.069Z,100088.41
2023-04-02T20:05:39.554Z,100093.34
2023-04-02T20:08:10.317Z,100100.19
2023-04-02T20:10:36.931Z,100099.75
2023-04-02T20:13:03.531Z,100102.56
2023-04-02T20:15:30.036Z,100103.03
2023-04-02T20:17:56.515Z,100101.31
2023-04-02T20:20:22.992Z,100101.41
2023-04-02T20:22:49.485Z,100109.94
2023-04-02T20:25:16.100Z,100114.06
2023-04-02T20:27:42.626Z,100113.69
2023-04-02T20:30:09.375Z,100120.06
2023-04-02T20:32:37.836Z,100121.94
2023-04-02T20:35:05.211Z,100120.88
2023-04-02T20:37:31.708Z,100131.25
2023-04-02T20:39:58.886Z,100135.66
2023-04-02T20:42:25.925Z,100134.38
2023-04-02T20:44:52.596Z,100131.47
2023-04-02T20:47:19.389Z,100137.53
2023-04-02T20:49:45.843Z,100141.91
2023-04-02T20:52:12.291Z,100145.69
2023-04-02T20:54:38.746Z,100144.28
2023-04-02T20:57:05.278Z,100149.09
2023-04-02T20:59:31.785Z,100159.03
2023-04-02T21:01:58.269Z,100162.88
2023-04-02T21:04:24.926Z,100158.44
2023-04-02T21:06:56.762Z,100170.94
2023-04-02T21:09:23.582Z,100171.66
2023-04-02T21:11:53.104Z,100178.94
2023-04-02T21:14:19.606Z,100183.31
2023-04-02T21:16:48.830Z,100186.47
2023-04-02T21:19:15.582Z,100200.22
2023-04-02T21:21:45.228Z,100196.66
2023-04-02T21:24:11.728Z,100195.66
2023-04-02T21:26:39.853Z,100204.19
2023-04-02T21:29:08.374Z,100201.00
2023-04-02T21:31:37.244Z,100203.81
2023-04-02T21:34:04.886Z,100207.75
2023-04-02T21:36:38.862Z,100208.00
2023-04-02T21:39:10.518Z,100211.44
2023-04-02T21:41:42.474Z,100209.56
2023-04-02T21:44:12.525Z,100217.19
2023-04-02T21:46:42.880Z,100230.19
2023-04-02T21:49:11.155Z,100225.22
2023-04-02T21:51:38.981Z,100215.41
2023-04-02T21:54:06.007Z,100209.16
2023-04-02T21:56:34.442Z,100210.19
2023-04-02T21:59:02.191Z,100213.50
2023-04-02T22:01:31.512Z,100205.22
2023-04-02T22:03:59.565Z,100206.78
2023-04-02T22:06:28.034Z,100205.88
2023-04-02T22:08:57.418Z,100212.22
2023-04-02T22:11:29.933Z,100207.66
2023-04-02T22:13:56.946Z,100217.56
2023-04-02T22:16:28.739Z,100210.31
2023-04-02T22:18:56.783Z,100215.00
2023-04-02T22:21:23.292Z,100221.66
2023-04-02T22:23:49.958Z,100208.78
2023-04-02T22:26:17.487Z,100212.38
2023-04-02T22:28:44.496Z,100214.25
2023-04-02T22:31:17.386Z,100211.31
2023-04-02T22:33:45.450Z,100213.63
2023-04-02T22:36:12.879Z,100223.19
2023-04-02T22:38:39.557Z,100217.44
2023-04-02T22:41:07.222Z,100235.13
2023-04-02T22:43:34.139Z,100234.13
2023-04-02T22:46:01.157Z,100224.03
2023-04-02T22:48:27.954Z,100237.69
2023-04-02T22:50:54.480Z,100230.81
2023-04-02T22:53:21.098Z,100236.16
2023-04-02T22:55:47.635Z,100234.88
2023-04-02T22:58:14.298Z,100240.22
2023-04-02T23:00:41.539Z,100240.84
2023-04-02T23:03:08.052Z,100248.38
2023-04-02T23:05:34.462Z,100257.66
2023-04-02T23:08:00.965Z,100254.25
2023-04-02T23:10:28.861Z,100251.53
2023-04-02T23:12:55.693Z,100251.03
2023-04-02T23:15:22.121Z,100252.94
2023-04-02T23:17:48.616Z,100248.75
2023-04-02T23:20:15.314Z,100248.09
2023-04-02T23:22:41.735Z,100255.09
2023-04-02T23:25:08.301Z,100246.84
2023-04-02T23:27:34.713Z,100253.94
2023-04-02T23:30:01.130Z,100253.56
2023-04-02T23:32:27.633Z,100255.63
2023-04-02T23:34:54.124Z,100251.78
2023-04-02T23:37:20.606Z,100247.84
2023-04-02T23:39:47.025Z,100249.88
2023-04-02T23:42:13.509Z,100247.06
2023-04-02T23:44:39.971Z,100252.03
2023-04-02T23:47:06.391Z,100257.00
2023-04-02T23:49:32.905Z,100253.06
2023-04-02T23:51:59.350Z,100242.25
2023-04-02T23:54:25.838Z,100240.97
2023-04-02T23:56:52.263Z,100242.75
2023-04-02T23:59:18.701Z,100245.91
